createdAt,value
2023-04-25T00:00:35.892Z,10.87
2023-04-25T00:01:39.901Z,10.87
2023-04-25T00:02:44.062Z,10.85
2023-04-25T00:03:48.442Z,10.85
2023-04-25T00:04:53.170Z,10.85
2023-04-25T00:05:57.730Z,10.83
2023-04-25T00:07:01.885Z,10.84
2023-04-25T00:08:06.104Z,10.82
2023-04-25T00:09:10.036Z,10.82
2023-04-25T00:10:14.252Z,10.82
2023-04-25T00:11:18.329Z,10.81
2023-04-25T00:12:22.408Z,10.81
2023-04-25T00:13:38.250Z,10.81
2023-04-25T00:14:32.878Z,10.81
2023-04-25T00:15:36.832Z,10.81
2023-04-25T00:16:40.878Z,10.81
2023-04-25T00:17:46.469Z,10.80
2023-04-25T00:18:50.415Z,10.80
2023-04-25T00:19:54.452Z,10.79
2023-04-25T00:20:58.498Z,10.79
2023-04-25T00:22:02.527Z,10.79
2023-04-25T00:23:07.203Z,10.78
2023-04-25T00:24:11.229Z,10.77
2023-04-25T00:25:15.145Z,10.77
2023-04-25T00:26:20.083Z,10.75
2023-04-25T00:27:23.997Z,10.73
2023-04-25T00:28:27.963Z,10.72
2023-04-25T00:29:31.876Z,10.72
2023-04-25T00:30:35.857Z,10.69
2023-04-25T00:31:39.969Z,10.68
2023-04-25T00:32:44.073Z,10.66
2023-04-25T00:33:49.098Z,10.65
2023-04-25T00:34:53.498Z,10.60
2023-04-25T00:35:59.757Z,10.59
2023-04-25T00:37:04.983Z,10.59
2023-04-25T00:38:12.754Z,10.55
2023-04-25T00:39:21.455Z,10.52
2023-04-25T00:40:23.901Z,10.52
2023-04-25T00:41:28.465Z,10.50
2023-04-25T00:42:33.502Z,10.50
2023-04-25T00:43:38.733Z,10.47
2023-04-25T00:44:43.854Z,10.47
2023-04-25T00:45:49.166Z,10.44
2023-04-25T00:46:55.031Z,10.41
2023-04-25T00:47:59.167Z,10.39
2023-04-25T00:49:03.164Z,10.32
2023-04-25T00:50:08.313Z,10.32
2023-04-25T00:51:18.031Z,10.30
2023-04-25T00:52:22.275Z,10.30
2023-04-25T00:53:27.968Z,10.28
2023-04-25T00:54:32.099Z,10.25
2023-04-25T00:55:36.133Z,10.24
2023-04-25T00:56:43.136Z,10.21
2023-04-25T00:57:47.070Z,10.18
2023-04-25T00:58:53.208Z,10.13
2023-04-25T00:59:57.528Z,10.13
2023-04-25T01:01:02.101Z,10.09
2023-04-25T01:02:06.583Z,10.04
2023-04-25T01:03:10.791Z,10.04
2023-04-25T01:04:15.773Z,10.05
2023-04-25T01:05:19.973Z,10.03
2023-04-25T01:06:25.543Z,10.03
2023-04-25T01:07:29.442Z,10.00
2023-04-25T01:08:33.303Z,9.92
2023-04-25T01:09:37.854Z,9.92
2023-04-25T01:10:41.739Z,9.91
2023-04-25T01:11:47.882Z,9.90
2023-04-25T01:12:53.507Z,9.89
2023-04-25T01:13:59.278Z,9.89
2023-04-25T01:15:03.364Z,9.89
2023-04-25T01:16:10.182Z,9.91
2023-04-25T01:17:14.653Z,9.91
2023-04-25T01:18:19.365Z,9.96
2023-04-25T01:19:23.653Z,9.97
2023-04-25T01:20:30.032Z,9.97
2023-04-25T01:21:34.080Z,9.96
2023-04-25T01:22:38.250Z,9.95
2023-04-25T01:23:42.898Z,9.95
2023-04-25T01:24:48.735Z,9.93
2023-04-25T01:25:52.882Z,9.91
2023-04-25T01:27:03.877Z,9.89
2023-04-25T01:28:02.862Z,9.87
2023-04-25T01:29:07.552Z,9.87
2023-04-25T01:30:13.314Z,9.85
2023-04-25T01:31:18.083Z,9.83
2023-04-25T01:32:24.129Z,9.83
2023-04-25T01:33:30.337Z,9.83
2023-04-25T01:34:36.638Z,9.83
2023-04-25T01:35:40.843Z,9.83
2023-04-25T01:36:46.342Z,9.83
2023-04-25T01:37:52.879Z,9.83
2023-04-25T01:38:56.649Z,9.80
2023-04-25T01:40:02.510Z,9.80
2023-04-25T01:41:07.088Z,9.80
2023-04-25T01:42:11.040Z,9.77
2023-04-25T01:43:15.057Z,9.78
2023-04-25T01:44:19.056Z,9.77
2023-04-25T01:45:23.079Z,9.76
2023-04-25T01:46:30.937Z,9.74
2023-04-25T01:47:37.432Z,9.73
2023-04-25T01:48:41.039Z,9.72
2023-04-25T01:49:44.973Z,9.72
2023-04-25T01:50:49.581Z,9.70
2023-04-25T01:51:53.766Z,9.68
2023-04-25T01:52:58.164Z,9.68
2023-04-25T01:54:04.685Z,9.64
2023-04-25T01:55:08.656Z,9.62
2023-04-25T01:56:13.941Z,9.62
2023-04-25T01:57:19.516Z,9.61
2023-04-25T01:58:23.394Z,9.61
2023-04-25T01:59:27.255Z,9.58
2023-04-25T02:00:31.185Z,9.58
2023-04-25T02:01:35.130Z,9.56
2023-04-25T02:02:39.724Z,9.56
2023-04-25T02:03:44.368Z,9.56
2023-04-25T02:04:48.603Z,9.56
2023-04-25T02:05:52.588Z,9.56
2023-04-25T02:06:56.594Z,9.56
2023-04-25T02:08:00.567Z,9.56
2023-04-25T02:09:04.612Z,9.55
2023-04-25T02:10:09.534Z,9.53
2023-04-25T02:11:13.420Z,9.55
2023-04-25T02:12:17.309Z,9.51
2023-04-25T02:13:22.921Z,9.51
2023-04-25T02:14:28.378Z,9.51
2023-04-25T02:15:32.614Z,9.46
2023-04-25T02:16:36.755Z,9.50
2023-04-25T02:17:42.492Z,9.46
2023-04-25T02:18:46.587Z,9.46
2023-04-25T02:19:50.633Z,9.46
2023-04-25T02:20:54.838Z,9.46
2023-04-25T02:21:58.888Z,9.42
2023-04-25T02:23:03.029Z,9.42
2023-04-25T02:24:07.677Z,9.43
2023-04-25T02:25:12.333Z,9.44
2023-04-25T02:26:19.024Z,9.44
2023-04-25T02:27:22.978Z,9.44
2023-04-25T02:28:33.532Z,9.42
2023-04-25T02:29:34.214Z,9.42
2023-04-25T02:30:38.580Z,9.42
2023-04-25T02:31:42.766Z,9.42
2023-04-25T02:32:49.819Z,9.42
2023-04-25T02:33:53.845Z,9.42
2023-04-25T02:34:59.231Z,9.41
2023-04-25T02:36:03.248Z,9.41
2023-04-25T02:37:07.182Z,9.41
2023-04-25T02:38:11.088Z,9.41
2023-04-25T02:39:17.494Z,9.41
2023-04-25T02:40:21.474Z,9.41
2023-04-25T02:41:25.426Z,9.40
2023-04-25T02:42:29.669Z,9.38
2023-04-25T02:43:34.664Z,9.37
2023-04-25T02:44:38.559Z,9.37
2023-04-25T02:45:42.455Z,9.40
2023-04-25T02:46:47.794Z,9.39
2023-04-25T02:47:51.743Z,9.31
2023-04-25T02:48:55.701Z,9.26
2023-04-25T02:49:59.654Z,9.27
2023-04-25T02:51:03.632Z,9.27
2023-04-25T02:52:07.877Z,9.29
2023-04-25T02:53:11.891Z,9.29
2023-04-25T02:54:15.881Z,9.36
2023-04-25T02:55:19.859Z,9.40
2023-04-25T02:56:24.025Z,9.45
2023-04-25T02:57:28.051Z,9.52
2023-04-25T02:58:31.929Z,9.52
2023-04-25T02:59:36.115Z,9.65
2023-04-25T03:00:40.284Z,9.72
2023-04-25T03:01:44.241Z,9.82
2023-04-25T03:03:16.085Z,9.88
2023-04-25T03:04:39.176Z,9.96
2023-04-25T03:05:43.523Z,10.00
2023-04-25T03:06:47.895Z,10.02
2023-04-25T03:07:53.708Z,10.09
2023-04-25T03:08:57.831Z,10.19
2023-04-25T03:10:03.258Z,9.94
2023-04-25T03:11:07.480Z,10.43
2023-04-25T03:12:12.698Z,10.58
2023-04-25T03:13:16.852Z,10.74
2023-04-25T03:14:20.907Z,10.86
2023-04-25T03:15:25.090Z,11.01
2023-04-25T03:16:29.108Z,11.16
2023-04-25T03:17:34.441Z,11.32
2023-04-25T03:18:38.437Z,11.49
2023-04-25T03:19:42.345Z,11.63
2023-04-25T03:20:46.424Z,11.74
2023-04-25T03:21:50.420Z,11.88
2023-04-25T03:22:57.809Z,11.99
2023-04-25T03:24:02.230Z,11.99
2023-04-25T03:25:06.899Z,12.37
2023-04-25T03:26:13.807Z,12.53
2023-04-25T03:27:18.359Z,12.53
2023-04-25T03:28:23.927Z,12.84
2023-04-25T03:29:27.827Z,12.98
2023-04-25T03:30:31.797Z,13.15
2023-04-25T03:31:35.797Z,13.33
2023-04-25T03:32:39.880Z,13.52
2023-04-25T03:33:43.797Z,13.70
2023-04-25T03:34:47.756Z,13.85
2023-04-25T03:35:52.530Z,14.03
2023-04-25T03:36:57.828Z,13.35
2023-04-25T03:38:01.725Z,14.31
2023-04-25T03:39:05.639Z,14.44
2023-04-25T03:40:10.111Z,14.55
2023-04-25T03:41:14.046Z,14.55
2023-04-25T03:42:18.096Z,14.82
2023-04-25T03:43:22.051Z,14.97
2023-04-25T03:44:25.992Z,14.97
2023-04-25T03:45:29.871Z,15.13
2023-04-25T03:46:35.444Z,15.32
2023-04-25T03:47:39.449Z,15.41
2023-04-25T03:48:43.345Z,15.51
2023-04-25T03:49:47.275Z,15.65
2023-04-25T03:50:51.526Z,15.65
2023-04-25T03:51:55.521Z,15.70
2023-04-25T03:52:59.380Z,15.76
2023-04-25T03:54:03.266Z,16.02
2023-04-25T03:55:07.485Z,16.13
2023-04-25T03:56:11.803Z,16.25
2023-04-25T03:57:16.016Z,16.25
2023-04-25T03:58:20.067Z,16.35
2023-04-25T03:59:24.037Z,16.63
2023-04-25T04:00:28.068Z,16.63
2023-04-25T04:01:32.019Z,16.83
2023-04-25T04:02:35.939Z,16.94
2023-04-25T04:03:40.191Z,16.94
2023-04-25T04:04:44.422Z,17.18
2023-04-25T04:05:48.871Z,17.29
2023-04-25T04:06:52.910Z,17.39
2023-04-25T04:07:57.240Z,17.52
2023-04-25T04:09:01.228Z,17.52
2023-04-25T04:10:05.420Z,17.60
2023-04-25T04:11:09.447Z,17.65
2023-04-25T04:12:13.328Z,17.70
2023-04-25T04:13:17.230Z,17.70
2023-04-25T04:14:21.134Z,17.88
2023-04-25T04:15:25.023Z,18.04
2023-04-25T04:16:29.058Z,18.04
2023-04-25T04:17:33.683Z,18.10
2023-04-25T04:18:37.726Z,18.18
2023-04-25T04:19:41.674Z,18.18
2023-04-25T04:20:45.624Z,18.37
2023-04-25T04:21:49.561Z,18.37
2023-04-25T04:22:53.432Z,18.41
2023-04-25T04:23:57.331Z,18.55
2023-04-25T04:25:01.338Z,18.65
2023-04-25T04:26:05.316Z,18.77
2023-04-25T04:27:09.184Z,18.98
2023-04-25T04:28:14.717Z,18.98
2023-04-25T04:29:18.761Z,19.06
2023-04-25T04:30:26.105Z,19.06
2023-04-25T04:31:30.280Z,19.07
2023-04-25T04:32:34.274Z,19.11
2023-04-25T04:33:38.286Z,19.14
2023-04-25T04:34:42.387Z,19.20
2023-04-25T04:35:46.773Z,19.20
2023-04-25T04:36:50.800Z,19.17
2023-04-25T04:37:55.139Z,19.29
2023-04-25T04:38:59.038Z,19.29
2023-04-25T04:40:03.016Z,19.41
2023-04-25T04:41:07.249Z,19.41
2023-04-25T04:42:11.167Z,19.39
2023-04-25T04:43:15.219Z,19.44
2023-04-25T04:44:19.189Z,19.56
2023-04-25T04:45:23.135Z,19.54
2023-04-25T04:46:27.129Z,19.63
2023-04-25T04:47:31.133Z,19.70
2023-04-25T04:48:35.152Z,19.73
2023-04-25T04:49:39.115Z,19.73
2023-04-25T04:50:44.899Z,19.80
2023-04-25T04:51:48.959Z,19.80
2023-04-25T04:52:52.840Z,19.83
2023-04-25T04:53:56.693Z,19.83
2023-04-25T04:55:00.596Z,19.93
2023-04-25T04:56:04.776Z,19.93
2023-04-25T04:57:08.760Z,19.97
2023-04-25T04:58:12.685Z,19.99
2023-04-25T04:59:16.561Z,20.02
2023-04-25T05:00:21.162Z,20.07
2023-04-25T05:01:26.011Z,20.07
2023-04-25T05:02:30.161Z,20.14
2023-04-25T05:03:34.471Z,20.14
2023-04-25T05:04:38.665Z,20.22
2023-04-25T05:05:43.170Z,20.22
2023-04-25T05:06:48.928Z,20.32
2023-04-25T05:07:53.035Z,20.29
2023-04-25T05:08:57.634Z,20.29
2023-04-25T05:10:01.584Z,20.32
2023-04-25T05:11:05.632Z,20.32
2023-04-25T05:12:09.556Z,20.40
2023-04-25T05:13:15.181Z,20.40
2023-04-25T05:14:19.320Z,20.48
2023-04-25T05:15:23.192Z,20.52
2023-04-25T05:16:28.713Z,20.49
2023-04-25T05:17:32.810Z,20.52
2023-04-25T05:18:36.704Z,20.51
2023-04-25T05:19:40.984Z,20.59
2023-04-25T05:20:44.929Z,20.59
2023-04-25T05:21:48.979Z,20.58
2023-04-25T05:22:52.871Z,20.59
2023-04-25T05:23:57.331Z,20.59
2023-04-25T05:25:01.214Z,20.59
2023-04-25T05:26:05.401Z,20.53
2023-04-25T05:27:09.272Z,20.53
2023-04-25T05:28:14.304Z,20.61
2023-04-25T05:29:18.217Z,20.61
2023-04-25T05:30:22.684Z,20.60
2023-04-25T05:31:26.787Z,20.64
2023-04-25T05:32:30.886Z,20.64
2023-04-25T05:33:34.838Z,20.70
2023-04-25T05:34:38.819Z,20.70
2023-04-25T05:35:42.996Z,20.71
2023-04-25T05:36:47.132Z,20.68
2023-04-25T05:37:51.052Z,20.68
2023-04-25T05:38:55.075Z,20.67
2023-04-25T05:39:58.976Z,20.63
2023-04-25T05:41:03.047Z,20.62
2023-04-25T05:42:07.059Z,20.62
2023-04-25T05:43:11.037Z,20.64
2023-04-25T05:44:15.027Z,20.66
2023-04-25T05:45:19.141Z,20.66
2023-04-25T05:46:23.243Z,20.70
2023-04-25T05:47:27.383Z,20.72
2023-04-25T05:48:31.396Z,20.74
2023-04-25T05:49:36.051Z,20.74
2023-04-25T05:50:39.996Z,20.78
2023-04-25T05:51:44.084Z,20.82
2023-04-25T05:52:48.013Z,20.82
2023-04-25T05:53:52.336Z,20.81
2023-04-25T05:54:56.752Z,20.87
2023-04-25T05:56:00.692Z,20.92
2023-04-25T05:57:04.811Z,20.92
2023-04-25T05:58:08.727Z,20.93
2023-04-25T05:59:14.308Z,20.94
2023-04-25T06:00:18.404Z,20.96
2023-04-25T06:01:24.122Z,20.91
2023-04-25T06:02:28.299Z,20.94
2023-04-25T06:03:32.530Z,20.97
2023-04-25T06:04:36.911Z,20.97
2023-04-25T06:05:42.483Z,20.99
2023-04-25T06:06:46.739Z,20.99
2023-04-25T06:07:50.769Z,20.99
2023-04-25T06:08:54.828Z,20.99
2023-04-25T06:09:59.178Z,20.97
2023-04-25T06:11:03.152Z,21.02
2023-04-25T06:12:07.733Z,21.02
2023-04-25T06:13:11.756Z,21.02
2023-04-25T06:14:15.643Z,21.03
2023-04-25T06:16:25.550Z,21.01
2023-04-25T06:17:29.667Z,21.01
2023-04-25T06:18:33.646Z,21.01
2023-04-25T06:19:38.002Z,21.00
2023-04-25T06:20:41.982Z,21.05
2023-04-25T06:21:46.262Z,21.07
2023-04-25T06:22:53.086Z,21.14
2023-04-25T06:23:56.073Z,21.14
2023-04-25T06:25:01.267Z,21.16
2023-04-25T06:26:05.306Z,21.12
2023-04-25T06:27:09.371Z,21.14
2023-04-25T06:28:13.457Z,21.12
2023-04-25T06:29:17.424Z,21.13
2023-04-25T06:30:21.422Z,21.13
2023-04-25T06:31:25.407Z,21.09
2023-04-25T06:32:29.393Z,21.09
2023-04-25T06:33:33.344Z,21.11
2023-04-25T06:34:37.419Z,21.11
2023-04-25T06:35:41.552Z,21.12
2023-04-25T06:36:45.538Z,21.12
2023-04-25T06:37:49.514Z,21.10
2023-04-25T06:38:53.897Z,21.11
2023-04-25T06:39:57.921Z,21.11
2023-04-25T06:41:01.859Z,21.20
2023-04-25T06:42:05.741Z,21.20
2023-04-25T06:43:09.700Z,21.29
2023-04-25T06:44:13.587Z,21.29
2023-04-25T06:45:17.579Z,21.29
2023-04-25T06:46:21.528Z,21.29
2023-04-25T06:47:25.617Z,21.27
2023-04-25T06:48:29.778Z,21.27
2023-04-25T06:49:35.333Z,21.30
2023-04-25T06:50:39.248Z,21.26
2023-04-25T06:51:43.180Z,21.31
2023-04-25T06:52:47.048Z,21.33
2023-04-25T06:53:50.984Z,21.33
2023-04-25T06:54:54.883Z,21.34
2023-04-25T06:55:58.744Z,21.36
2023-04-25T06:57:02.758Z,21.38
2023-04-25T06:58:06.638Z,21.41
2023-04-25T06:59:10.642Z,21.46
2023-04-25T07:00:15.357Z,21.49
2023-04-25T07:01:19.341Z,21.48
2023-04-25T07:02:23.458Z,21.45
2023-04-25T07:03:27.503Z,21.45
2023-04-25T07:04:31.691Z,21.49
2023-04-25T07:05:37.641Z,21.49
2023-04-25T07:06:41.666Z,21.49
2023-04-25T07:07:47.542Z,21.50
2023-04-25T07:08:51.255Z,21.51
2023-04-25T07:09:55.353Z,21.49
2023-04-25T07:10:59.358Z,21.51
2023-04-25T07:12:03.304Z,21.50
2023-04-25T07:13:07.320Z,21.51
2023-04-25T07:14:11.347Z,21.59
2023-04-25T07:15:15.365Z,21.57
2023-04-25T07:16:19.502Z,21.57
2023-04-25T07:17:23.455Z,21.60
2023-04-25T07:18:28.654Z,21.57
2023-04-25T07:19:34.515Z,21.58
2023-04-25T07:20:38.422Z,21.39
2023-04-25T07:21:42.272Z,21.39
2023-04-25T07:22:46.137Z,21.58
2023-04-25T07:23:51.645Z,21.58
2023-04-25T07:24:55.621Z,21.61
2023-04-25T07:25:59.555Z,21.60
2023-04-25T07:27:04.921Z,21.65
2023-04-25T07:28:08.921Z,21.68
2023-04-25T07:29:12.862Z,21.68
2023-04-25T07:30:16.973Z,21.68
2023-04-25T07:31:20.857Z,21.67
2023-04-25T07:32:24.971Z,21.66
2023-04-25T07:33:29.454Z,21.70
2023-04-25T07:34:34.956Z,21.71
2023-04-25T07:35:38.874Z,21.71
2023-04-25T07:36:42.919Z,21.72
2023-04-25T07:37:46.851Z,21.72
2023-04-25T07:38:51.037Z,21.70
2023-04-25T07:39:55.124Z,21.72
2023-04-25T07:40:59.177Z,21.69
2023-04-25T07:42:03.043Z,21.71
2023-04-25T07:43:06.934Z,21.71
2023-04-25T07:44:10.868Z,21.75
2023-04-25T07:45:14.739Z,21.75
2023-04-25T07:46:18.838Z,21.76
2023-04-25T07:47:22.885Z,21.77
2023-04-25T07:48:26.826Z,21.77
2023-04-25T07:49:30.792Z,21.80
2023-04-25T07:50:34.692Z,21.82
2023-04-25T07:51:38.731Z,21.82
2023-04-25T07:52:42.675Z,21.82
2023-04-25T07:53:48.343Z,21.82
2023-04-25T07:54:52.658Z,21.77
2023-04-25T07:55:56.689Z,21.82
2023-04-25T07:57:00.857Z,21.82
2023-04-25T07:58:04.908Z,21.75
2023-04-25T07:59:08.887Z,21.77
2023-04-25T08:00:14.130Z,21.78
2023-04-25T08:01:18.088Z,21.84
2023-04-25T08:02:22.001Z,21.84
2023-04-25T08:03:26.062Z,21.83
2023-04-25T08:04:30.305Z,21.75
2023-04-25T08:05:34.467Z,21.75
2023-04-25T08:06:38.634Z,21.79
2023-04-25T08:07:43.111Z,21.76
2023-04-25T08:08:47.659Z,21.76
2023-04-25T08:09:51.601Z,21.85
2023-04-25T08:10:58.710Z,21.87
2023-04-25T08:12:02.733Z,21.85
2023-04-25T08:13:06.712Z,21.89
2023-04-25T08:14:10.820Z,21.84
2023-04-25T08:15:14.834Z,21.84
2023-04-25T08:16:19.823Z,21.84
2023-04-25T08:17:23.824Z,21.77
2023-04-25T08:18:27.947Z,21.77
2023-04-25T08:19:32.060Z,21.76
2023-04-25T08:20:36.014Z,21.76
2023-04-25T08:21:40.009Z,21.77
2023-04-25T08:22:44.234Z,21.76
2023-04-25T08:23:49.680Z,21.81
2023-04-25T08:24:53.649Z,21.83
2023-04-25T08:25:57.645Z,21.83
2023-04-25T08:27:01.750Z,21.75
2023-04-25T08:28:07.225Z,21.69
2023-04-25T08:29:11.320Z,21.69
2023-04-25T08:30:15.549Z,21.69
2023-04-25T08:31:19.911Z,21.69
2023-04-25T08:32:23.894Z,21.65
2023-04-25T08:33:27.946Z,21.66
2023-04-25T08:34:32.006Z,21.64
2023-04-25T08:35:36.058Z,21.71
2023-04-25T08:36:40.980Z,21.71
2023-04-25T08:37:44.978Z,21.72
2023-04-25T08:38:49.210Z,21.76
2023-04-25T08:39:53.466Z,21.76
2023-04-25T08:41:00.278Z,21.82
2023-04-25T08:42:06.898Z,21.82
2023-04-25T08:43:12.755Z,21.76
2023-04-25T08:44:18.302Z,21.71
2023-04-25T08:45:22.515Z,21.74
2023-04-25T08:46:27.137Z,21.85
2023-04-25T08:47:33.397Z,21.85
2023-04-25T08:48:49.485Z,21.91
2023-04-25T08:49:46.730Z,21.97
2023-04-25T08:50:55.341Z,21.96
2023-04-25T08:52:01.970Z,21.96
2023-04-25T08:53:07.931Z,22.01
2023-04-25T08:55:21.726Z,21.94
2023-04-25T08:56:26.388Z,21.95
2023-04-25T08:57:32.507Z,21.86
2023-04-25T08:58:37.019Z,21.86
2023-04-25T08:59:42.010Z,21.84
2023-04-25T09:00:50.000Z,21.77
2023-04-25T09:01:53.979Z,21.77
2023-04-25T09:02:59.550Z,21.77
2023-04-25T09:04:03.866Z,21.77
2023-04-25T09:05:08.878Z,21.77
2023-04-25T09:06:13.081Z,21.73
2023-04-25T09:07:17.073Z,21.72
2023-04-25T09:08:21.086Z,21.58
2023-04-25T09:09:25.982Z,21.60
2023-04-25T09:10:33.047Z,21.60
2023-04-25T09:11:37.033Z,21.56
2023-04-25T09:12:41.406Z,21.56
2023-04-25T09:13:46.579Z,21.57
2023-04-25T09:15:09.312Z,21.57
2023-04-25T09:16:14.928Z,21.62
2023-04-25T09:17:19.943Z,21.62
2023-04-25T09:18:30.806Z,21.62
2023-04-25T09:19:41.085Z,21.62
2023-04-25T09:21:00.889Z,21.61
2023-04-25T09:21:58.328Z,21.61
2023-04-25T09:23:06.450Z,21.72
2023-04-25T09:24:10.445Z,21.98
2023-04-25T09:25:15.082Z,21.98
2023-04-25T09:26:21.293Z,22.13
2023-04-25T09:27:25.234Z,22.39
2023-04-25T09:28:30.920Z,22.39
2023-04-25T09:29:36.633Z,22.63
2023-04-25T09:30:40.903Z,22.63
2023-04-25T09:31:44.763Z,22.67
2023-04-25T09:32:49.117Z,22.67
2023-04-25T09:33:56.915Z,22.73
2023-04-25T09:35:00.943Z,22.77
2023-04-25T09:36:10.440Z,22.77
2023-04-25T09:37:15.944Z,22.77
2023-04-25T09:38:20.315Z,22.78
2023-04-25T09:39:24.133Z,22.72
2023-04-25T09:40:28.126Z,22.72
2023-04-25T09:41:32.116Z,22.60
2023-04-25T09:42:36.039Z,22.47
2023-04-25T09:43:40.653Z,22.38
2023-04-25T09:44:46.590Z,22.29
2023-04-25T09:45:52.209Z,22.29
2023-04-25T09:46:56.204Z,22.22
2023-04-25T09:48:03.144Z,22.19
2023-04-25T09:49:10.169Z,22.25
2023-04-25T09:50:19.060Z,22.35
2023-04-25T09:51:25.982Z,22.42
2023-04-25T09:52:29.973Z,22.54
2023-04-25T09:54:52.394Z,22.73
2023-04-25T09:55:57.619Z,22.81
2023-04-25T09:57:13.246Z,22.94
2023-04-25T09:58:17.666Z,22.94
2023-04-25T09:59:24.964Z,23.05
2023-04-25T10:00:30.125Z,23.05
2023-04-25T10:01:34.718Z,23.12
2023-04-25T10:02:42.103Z,23.00
2023-04-25T10:03:50.857Z,23.11
2023-04-25T10:04:58.721Z,23.02
2023-04-25T10:06:05.081Z,23.05
2023-04-25T10:07:10.206Z,23.14
2023-04-25T10:08:14.649Z,23.14
2023-04-25T10:09:20.535Z,23.11
2023-04-25T10:10:25.553Z,23.11
2023-04-25T10:11:30.037Z,23.05
2023-04-25T10:12:35.413Z,23.06
2023-04-25T10:13:39.258Z,23.03
2023-04-25T10:14:43.701Z,23.03
2023-04-25T10:15:48.282Z,23.03
2023-04-25T10:16:53.060Z,22.98
2023-04-25T10:17:59.800Z,22.98
2023-04-25T10:19:04.686Z,23.00
2023-04-25T10:20:10.454Z,23.00
2023-04-25T10:21:16.297Z,23.00
2023-04-25T10:22:40.969Z,22.94
2023-04-25T10:23:45.830Z,22.91
2023-04-25T10:24:52.095Z,22.91
2023-04-25T10:25:56.431Z,22.83
2023-04-25T10:27:00.862Z,22.83
2023-04-25T10:28:06.237Z,22.80
2023-04-25T10:29:11.264Z,22.80
2023-04-25T10:30:17.059Z,22.68
2023-04-25T10:31:22.446Z,22.68
2023-04-25T10:32:26.380Z,22.68
2023-04-25T10:33:44.100Z,22.69
2023-04-25T10:34:48.255Z,22.78
2023-04-25T10:35:52.390Z,22.72
2023-04-25T10:36:57.998Z,22.76
2023-04-25T10:38:12.713Z,22.74
2023-04-25T10:39:19.698Z,22.74
2023-04-25T10:40:24.208Z,22.79
2023-04-25T10:41:28.778Z,22.74
2023-04-25T10:42:34.273Z,22.75
2023-04-25T10:43:41.041Z,22.75
2023-04-25T10:44:47.948Z,22.78
2023-04-25T10:45:54.063Z,22.69
2023-04-25T10:46:59.585Z,22.75
2023-04-25T10:48:03.636Z,22.77
2023-04-25T10:49:09.645Z,22.77
2023-04-25T10:50:16.749Z,22.77
2023-04-25T10:51:25.756Z,22.56
2023-04-25T10:52:29.711Z,22.53
2023-04-25T10:53:35.522Z,22.53
2023-04-25T10:54:58.323Z,22.49
2023-04-25T10:56:03.874Z,22.49
2023-04-25T10:57:10.877Z,22.49
2023-04-25T10:58:14.813Z,22.46
2023-04-25T10:59:20.435Z,22.52
2023-04-25T11:00:25.977Z,22.52
2023-04-25T11:01:33.756Z,22.53
2023-04-25T11:02:46.809Z,22.58
2023-04-25T11:03:52.676Z,22.58
2023-04-25T11:04:56.726Z,22.62
2023-04-25T11:06:03.220Z,22.57
2023-04-25T11:07:15.820Z,22.60
2023-04-25T11:08:22.741Z,22.59
2023-04-25T11:09:27.309Z,22.55
2023-04-25T11:10:32.953Z,22.53
2023-04-25T11:11:38.410Z,22.54
2023-04-25T11:12:44.151Z,22.52
2023-04-25T11:13:51.525Z,22.47
2023-04-25T11:15:01.270Z,22.49
2023-04-25T11:16:12.579Z,22.51
2023-04-25T11:17:12.385Z,22.52
2023-04-25T11:18:20.346Z,22.52
2023-04-25T11:19:25.599Z,22.40
2023-04-25T11:20:29.933Z,22.37
2023-04-25T11:21:33.988Z,22.32
2023-04-25T11:22:38.899Z,22.24
2023-04-25T11:23:44.371Z,22.27
2023-04-25T11:24:48.701Z,22.18
2023-04-25T11:25:52.751Z,22.18
2023-04-25T11:26:57.728Z,22.19
2023-04-25T11:28:01.701Z,22.13
2023-04-25T11:29:05.655Z,22.05
2023-04-25T11:30:14.701Z,21.97
2023-04-25T11:31:23.166Z,21.97
2023-04-25T11:32:27.734Z,21.94
2023-04-25T11:33:31.980Z,21.81
2023-04-25T11:34:36.453Z,21.81
2023-04-25T11:35:42.222Z,21.75
2023-04-25T11:36:47.338Z,21.73
2023-04-25T11:37:51.477Z,21.75
2023-04-25T11:38:55.721Z,21.71
2023-04-25T11:39:59.679Z,21.71
2023-04-25T11:41:04.294Z,21.70
2023-04-25T11:42:12.122Z,21.67
2023-04-25T11:43:13.818Z,21.63
2023-04-25T11:44:18.826Z,21.60
2023-04-25T11:45:24.266Z,21.60
2023-04-25T11:46:28.585Z,21.55
2023-04-25T11:47:33.393Z,21.54
2023-04-25T11:48:43.892Z,21.54
2023-04-25T11:49:47.798Z,21.45
2023-04-25T11:50:51.664Z,21.50
2023-04-25T11:51:55.628Z,21.52
2023-04-25T11:53:01.082Z,21.48
2023-04-25T11:54:06.067Z,21.48
2023-04-25T11:55:20.841Z,21.50
2023-04-25T11:56:24.818Z,21.52
2023-04-25T11:57:30.251Z,21.52
2023-04-25T11:58:37.234Z,21.47
2023-04-25T11:59:41.414Z,21.47
2023-04-25T12:00:50.161Z,21.48
2023-04-25T12:01:51.413Z,21.51
2023-04-25T12:02:57.249Z,21.51
2023-04-25T12:04:16.503Z,21.45
2023-04-25T12:05:32.122Z,21.45
2023-04-25T12:06:30.496Z,21.37
2023-04-25T12:07:34.481Z,21.31
2023-04-25T12:08:38.403Z,21.27
2023-04-25T12:09:42.350Z,21.26
2023-04-25T12:10:47.877Z,21.28
2023-04-25T12:11:56.512Z,21.27
2023-04-25T12:13:00.393Z,21.19
2023-04-25T12:14:05.117Z,21.19
2023-04-25T12:15:14.551Z,21.19
2023-04-25T12:16:18.695Z,21.18
2023-04-25T12:17:23.748Z,21.18
2023-04-25T12:18:27.816Z,21.14
2023-04-25T12:19:37.415Z,21.20
2023-04-25T12:20:42.653Z,21.25
2023-04-25T12:21:57.294Z,21.25
2023-04-25T12:22:53.363Z,21.25
2023-04-25T12:23:57.479Z,21.21
2023-04-25T12:25:01.499Z,21.13
2023-04-25T12:26:05.673Z,21.24
2023-04-25T12:27:09.697Z,21.27
2023-04-25T12:28:21.392Z,21.33
2023-04-25T12:29:29.528Z,21.42
2023-04-25T12:30:36.136Z,21.43
2023-04-25T12:31:40.178Z,21.42
2023-04-25T12:32:44.165Z,21.50
2023-04-25T12:33:48.182Z,21.47
2023-04-25T12:34:52.168Z,21.47
2023-04-25T12:35:56.544Z,21.47
2023-04-25T12:37:00.513Z,21.45
2023-04-25T12:38:04.472Z,21.41
2023-04-25T12:39:08.539Z,21.41
2023-04-25T12:40:13.631Z,21.41
2023-04-25T12:41:17.566Z,21.43
2023-04-25T12:42:21.569Z,21.41
2023-04-25T12:43:25.822Z,21.38
2023-04-25T12:44:29.851Z,21.38
2023-04-25T12:45:33.749Z,21.34
2023-04-25T12:46:38.652Z,21.37
2023-04-25T12:47:42.648Z,21.36
2023-04-25T12:48:46.669Z,21.36
2023-04-25T12:49:50.627Z,21.23
2023-04-25T12:50:54.645Z,21.23
2023-04-25T12:51:58.780Z,21.11
2023-04-25T12:53:02.705Z,21.11
2023-04-25T12:54:07.319Z,21.05
2023-04-25T12:55:11.272Z,21.01
2023-04-25T12:56:15.387Z,21.00
2023-04-25T12:57:20.076Z,21.00
2023-04-25T12:58:23.948Z,20.99
2023-04-25T12:59:27.875Z,20.99
2023-04-25T13:00:32.440Z,20.97
2023-04-25T13:01:36.783Z,20.99
2023-04-25T13:02:41.163Z,21.00
2023-04-25T13:03:45.501Z,21.05
2023-04-25T13:04:49.738Z,21.05
2023-04-25T13:05:53.956Z,20.99
2023-04-25T13:06:57.909Z,20.99
2023-04-25T13:08:01.851Z,20.98
2023-04-25T13:09:05.823Z,20.98
2023-04-25T13:10:10.215Z,20.91
2023-04-25T13:11:14.391Z,20.90
2023-04-25T13:12:18.304Z,20.92
2023-04-25T13:13:22.256Z,20.93
2023-04-25T13:14:26.278Z,20.91
2023-04-25T13:15:30.512Z,20.87
2023-04-25T13:16:36.174Z,20.91
2023-04-25T13:17:40.592Z,20.88
2023-04-25T13:18:44.526Z,20.88
2023-04-25T13:19:49.780Z,20.88
2023-04-25T13:20:54.460Z,20.88
2023-04-25T13:22:00.155Z,20.88
2023-04-25T13:23:05.681Z,20.87
2023-04-25T13:24:11.184Z,20.84
2023-04-25T13:25:15.106Z,20.83
2023-04-25T13:26:19.076Z,20.83
2023-04-25T13:27:29.733Z,20.87
2023-04-25T13:28:32.362Z,20.89
2023-04-25T13:29:35.939Z,20.89
2023-04-25T13:30:40.225Z,20.93
2023-04-25T13:31:44.218Z,20.93
2023-04-25T13:32:48.151Z,20.95
2023-04-25T13:33:52.811Z,20.93
2023-04-25T13:34:57.137Z,20.87
2023-04-25T13:36:02.791Z,20.89
2023-04-25T13:37:06.722Z,20.87
2023-04-25T13:38:10.788Z,20.87
2023-04-25T13:39:14.777Z,20.85
2023-04-25T13:40:20.432Z,20.88
2023-04-25T13:41:24.368Z,20.91
2023-04-25T13:42:28.480Z,20.88
2023-04-25T13:43:34.035Z,20.87
2023-04-25T13:44:37.901Z,20.89
2023-04-25T13:45:41.902Z,20.91
2023-04-25T13:46:47.404Z,20.91
2023-04-25T13:47:52.590Z,20.96
2023-04-25T13:49:03.015Z,20.96
2023-04-25T13:50:06.305Z,21.03
2023-04-25T13:51:10.257Z,21.03
2023-04-25T13:52:14.102Z,21.09
2023-04-25T13:53:18.036Z,21.10
2023-04-25T13:54:22.066Z,21.10
2023-04-25T13:55:26.017Z,21.08
2023-04-25T13:56:29.980Z,21.06
2023-04-25T13:57:34.351Z,21.06
2023-04-25T13:58:38.692Z,21.08
2023-04-25T13:59:42.634Z,21.09
2023-04-25T14:00:46.635Z,21.12
2023-04-25T14:01:50.549Z,21.16
2023-04-25T14:02:54.567Z,21.16
2023-04-25T14:03:58.570Z,21.23